Главная страница
METAR-TAF:

METAR-TAF

Аэропорты :

Международный аэропорт имени Кеннета Каунды

Лусака, Замбия

широта: 15-19-51S, долгота: 028-27-09E, высота над уровнем моря: 1152 м

Текущие метеонаблюдения

Эта сводка был подготовлена 1 час и 15 минут назад, в 06:00 UTC
Ветер 5 Узел от северно-северо-западный
Температура 19°C
Влажность 88%
Давление 1021 hPa
Видимость 10 км и более
небольшая облачность на высоте 800 фута
Рассеянная облачность на высоте 9000 фута

METAR: FLKK 100600Z 33005KT 9999 FEW008 BKN090 19/17 Q1021

Время: 09:15 (07:15 UTC)


TAF: отсутствует

Метеонаблюдения и прогнозы для более 4000 аэропортов (сводки METAR и TAF).

Имеющиеся станции представлены на карте желтыми и красными точками.

Чтобы увидеть название станции, наведите на нее мышь.

Затем щелкните, чтобы увидеть метеонаблюдения и метеопрогнозы.

Управление картой: чтобы увеличить масштаб, щелкните зеленые кнопки с черным крестиком; чтобы уменьшить масштаб, щелкните зеленую кнопку с тире; для просмотра соседних карт щелкайте зеленые стрелки.


METAR-TAF: